Time;durP1;ratioP1;P1;durP2;ratioP2;P2;SDS_P1;SDS_P2;PMS_P1;PMS_P2;Temp;Humidity;BMP_temperature;BMP_pressure;BME280_temperature;BME280_humidity;BME280_pressure;Samples;Min_cycle;Max_cycle;Signal;HPM_P1;HPM_P2
2023/07/02 00:00:05;;;;;;;;;;;;;;;;;;5053346;28;19921;-61
2023/07/02 00:02:31;;;;;;;;;;;;;;;;;;5071285;28;20357;-61
2023/07/02 00:04:57;;;;;;;;;;;;;;;;;;5070684;28;19924;-61
2023/07/02 00:07:23;;;;;;;;;;;;;;;;;;5070554;28;19999;-61
2023/07/02 00:09:49;;;;;;;;;;;;;;;;;;5071020;28;19978;-61
2023/07/02 00:12:14;;;;;;;;;;;;;;;;;;5051431;28;19944;-62
2023/07/02 00:14:40;;;;;;;;;;;;;;;;;;5071099;28;19925;-61
2023/07/02 00:17:06;;;;;;;;;;;;;;;;;;5070924;28;19921;-61
2023/07/02 00:19:32;;;;;;;;;;;;;;;;;;5052758;28;19932;-61
2023/07/02 00:21:58;;;;;;;;;;;;;;;;;;5053070;28;19931;-60
2023/07/02 00:24:24;;;;;;;;;;;;;;;;;;5071123;28;20404;-61
2023/07/02 00:26:50;;;;;;;;;;;;;;;;;;5075723;28;19920;-61
2023/07/02 00:29:16;;;;;;;;;;;;;;;;;;5054125;28;19927;-61
2023/07/02 00:31:42;;;;;;;;;;;;;;;;;;5070602;28;19928;-61
2023/07/02 00:34:08;;;;;;;;;;;;;;;;;;5069680;28;19924;-60
2023/07/02 00:36:33;;;;;;;;;;;;;;;;;;5074627;28;19924;-61
2023/07/02 00:38:59;;;;;;;;;;;;;;;;;;5065237;28;20019;-60
2023/07/02 00:41:25;;;;;;;;;;;;;;;;;;5071970;28;19921;-61
2023/07/02 00:43:54;;;;;;;;;;;;;;;;;;5073232;28;19928;-60
2023/07/02 00:46:20;;;;;;;;;;;;;;;;;;5074805;28;19982;-61
2023/07/02 00:48:46;;;;;;;;;;;;;;;;;;5071455;28;19920;-61
2023/07/02 00:51:11;;;;;;;;;;;;;;;;;;5071895;28;20427;-61
2023/07/02 00:53:37;;;;;;;;;;;;;;;;;;5073423;28;20549;-61
2023/07/02 00:56:03;;;;;;;;;;;;;;;;;;5074698;28;19924;-61
2023/07/02 00:58:29;;;;;;;;;;;;;;;;;;5075084;28;20340;-61
2023/07/02 01:00:56;;;;;;;;;;;;;;;;;;5074809;28;20513;-60
2023/07/02 01:03:22;;;;;;;;;;;;;;;;;;5070514;28;20016;-61
2023/07/02 01:05:48;;;;;;;;;;;;;;;;;;5068750;28;20341;-60
2023/07/02 01:08:14;;;;;;;;;;;;;;;;;;5055103;28;19961;-61
2023/07/02 01:10:42;;;;;;;;;;;;;;;;;;5059027;28;19921;-61
2023/07/02 01:13:08;;;;;;;;;;;;;;;;;;5056718;28;20436;-61
2023/07/02 01:15:34;;;;;;;;;;;;;;;;;;5074310;28;19924;-60
2023/07/02 01:17:59;;;;;;;;;;;;;;;;;;5057014;28;19928;-60
2023/07/02 01:20:26;;;;;;;;;;;;;;;;;;5055012;28;20577;-61
2023/07/02 01:22:52;;;;;;;;;;;;;;;;;;5038831;28;20302;-61
2023/07/02 01:25:18;;;;;;;;;;;;;;;;;;5049499;28;19920;-60
2023/07/02 01:27:44;;;;;;;;;;;;;;;;;;5035780;28;19921;-61
2023/07/02 01:30:10;;;;;;;;;;;;;;;;;;5053255;28;19932;-61
2023/07/02 01:32:36;;;;;;;;;;;;;;;;;;5054329;28;19932;-61
2023/07/02 01:35:02;;;;;;;;;;;;;;;;;;5053381;28;20290;-61
2023/07/02 01:37:28;;;;;;;;;;;;;;;;;;5051458;28;20030;-61
2023/07/02 01:39:54;;;;;;;;;;;;;;;;;;5043849;28;19925;-61
2023/07/02 01:42:20;;;;;;;;;;;;;;;;;;5050995;28;20374;-61
2023/07/02 01:44:46;;;;;;;;;;;;;;;;;;5051614;28;19967;-61
2023/07/02 01:47:11;;;;;;;;;;;;;;;;;;5052529;28;19925;-60
2023/07/02 01:49:37;;;;;;;;;;;;;;;;;;5053173;28;19924;-60
2023/07/02 01:52:03;;;;;;;;;;;;;;;;;;5053204;28;20011;-60
2023/07/02 01:54:29;;;;;;;;;;;;;;;;;;5047467;28;19921;-61
2023/07/02 01:56:55;;;;;;;;;;;;;;;;;;5032502;28;19921;-61
2023/07/02 01:59:21;;;;;;;;;;;;;;;;;;5031859;28;20032;-60
2023/07/02 02:01:47;;;;;;;;;;;;;;;;;;5032423;28;19925;-60
2023/07/02 02:04:13;;;;;;;;;;;;;;;;;;5037829;28;20667;-61
2023/07/02 02:06:39;;;;;;;;;;;;;;;;;;5051941;28;20035;-60
2023/07/02 02:09:04;;;;;;;;;;;;;;;;;;5040137;28;19991;-60
2023/07/02 02:11:30;;;;;;;;;;;;;;;;;;5050620;28;20322;-61
2023/07/02 02:13:56;;;;;;;;;;;;;;;;;;5035161;28;19928;-61
2023/07/02 02:16:22;;;;;;;;;;;;;;;;;;5042688;28;20270;-61
2023/07/02 02:18:51;;;;;;;;;;;;;;;;;;5053468;28;19921;-61
2023/07/02 02:21:17;;;;;;;;;;;;;;;;;;5055897;28;20015;-60
2023/07/02 02:23:43;;;;;;;;;;;;;;;;;;5072927;28;20078;-60
2023/07/02 02:26:09;;;;;;;;;;;;;;;;;;5073285;28;19920;-61
2023/07/02 02:28:35;;;;;;;;;;;;;;;;;;5051570;28;19928;-61
2023/07/02 02:31:01;;;;;;;;;;;;;;;;;;5053128;28;19948;-61
2023/07/02 02:33:27;;;;;;;;;;;;;;;;;;5053005;28;19921;-61
2023/07/02 02:35:52;;;;;;;;;;;;;;;;;;5035057;28;19924;-61
2023/07/02 02:38:18;;;;;;;;;;;;;;;;;;5059669;28;19920;-61
2023/07/02 02:40:44;;;;;;;;;;;;;;;;;;5054228;28;19978;-60
2023/07/02 02:43:10;;;;;;;;;;;;;;;;;;5070758;28;19999;-61
2023/07/02 02:45:36;;;;;;;;;;;;;;;;;;5053491;28;19920;-61
2023/07/02 02:48:02;;;;;;;;;;;;;;;;;;5069923;28;20368;-61
2023/07/02 02:50:28;;;;;;;;;;;;;;;;;;5051364;28;19968;-61
2023/07/02 02:52:54;;;;;;;;;;;;;;;;;;5068580;28;20290;-61
2023/07/02 02:55:20;;;;;;;;;;;;;;;;;;5071848;28;19928;-61
2023/07/02 02:57:45;;;;;;;;;;;;;;;;;;5072575;28;19925;-61
2023/07/02 03:00:11;;;;;;;;;;;;;;;;;;5072866;28;19951;-61
2023/07/02 03:02:37;;;;;;;;;;;;;;;;;;5069308;28;19990;-61
2023/07/02 03:05:03;;;;;;;;;;;;;;;;;;5071033;28;19920;-61
2023/07/02 03:07:29;;;;;;;;;;;;;;;;;;5034638;28;19921;-61
2023/07/02 03:09:55;;;;;;;;;;;;;;;;;;5071604;28;19975;-61
2023/07/02 03:12:21;;;;;;;;;;;;;;;;;;5070215;28;19927;-61
2023/07/02 03:14:51;;;;;;;;;;;;;;;;;;5070409;28;19920;-61
2023/07/02 03:17:17;;;;;;;;;;;;;;;;;;5070119;28;20061;-61
2023/07/02 03:19:43;;;;;;;;;;;;;;;;;;5068377;28;20000;-61
2023/07/02 03:22:09;;;;;;;;;;;;;;;;;;5048595;28;20460;-61
2023/07/02 03:24:35;;;;;;;;;;;;;;;;;;5061450;28;19932;-60
2023/07/02 03:27:00;;;;;;;;;;;;;;;;;;5071754;28;19924;-61
2023/07/02 03:29:26;;;;;;;;;;;;;;;;;;5072047;28;19921;-61
2023/07/02 03:31:52;;;;;;;;;;;;;;;;;;5072176;28;20280;-61
2023/07/02 03:34:18;;;;;;;;;;;;;;;;;;5071593;28;19920;-61
2023/07/02 03:36:44;;;;;;;;;;;;;;;;;;5071867;28;19924;-61
2023/07/02 03:39:10;;;;;;;;;;;;;;;;;;5049555;28;20372;-61
2023/07/02 03:41:36;;;;;;;;;;;;;;;;;;5052762;28;19928;-61
2023/07/02 03:44:02;;;;;;;;;;;;;;;;;;5069710;28;19936;-61
2023/07/02 03:46:28;;;;;;;;;;;;;;;;;;5045612;28;19924;-61
2023/07/02 03:48:54;;;;;;;;;;;;;;;;;;5062517;28;19971;-61
2023/07/02 03:51:19;;;;;;;;;;;;;;;;;;5053344;28;19920;-61
2023/07/02 03:53:45;;;;;;;;;;;;;;;;;;5035609;28;19921;-63
2023/07/02 03:56:11;;;;;;;;;;;;;;;;;;5070985;28;20278;-60
2023/07/02 03:58:37;;;;;;;;;;;;;;;;;;5071789;28;19921;-61
2023/07/02 04:01:03;;;;;;;;;;;;;;;;;;5051218;28;19927;-60
2023/07/02 04:03:29;;;;;;;;;;;;;;;;;;5050873;28;20077;-61
2023/07/02 04:05:55;;;;;;;;;;;;;;;;;;5069106;28;20297;-60
2023/07/02 04:08:21;;;;;;;;;;;;;;;;;;5071436;28;19928;-61
2023/07/02 04:10:47;;;;;;;;;;;;;;;;;;5071400;28;19920;-61
2023/07/02 04:13:13;;;;;;;;;;;;;;;;;;5071704;28;20254;-61
2023/07/02 04:15:39;;;;;;;;;;;;;;;;;;5071995;28;20389;-60
2023/07/02 04:18:05;;;;;;;;;;;;;;;;;;5037528;28;19920;-61
2023/07/02 04:20:31;;;;;;;;;;;;;;;;;;5059588;28;19920;-61
2023/07/02 04:22:57;;;;;;;;;;;;;;;;;;5068921;28;20380;-61
2023/07/02 04:25:23;;;;;;;;;;;;;;;;;;5069760;28;19921;-61
2023/07/02 04:27:49;;;;;;;;;;;;;;;;;;5071369;28;20063;-60
2023/07/02 04:30:15;;;;;;;;;;;;;;;;;;5050592;28;20437;-61
2023/07/02 04:32:41;;;;;;;;;;;;;;;;;;5071406;28;19994;-60
2023/07/02 04:35:06;;;;;;;;;;;;;;;;;;5051919;28;19921;-61
2023/07/02 04:37:32;;;;;;;;;;;;;;;;;;5069424;28;19920;-61
2023/07/02 04:39:58;;;;;;;;;;;;;;;;;;5069708;28;20396;-61
2023/07/02 04:42:27;;;;;;;;;;;;;;;;;;5049559;28;19929;-61
2023/07/02 04:44:53;;;;;;;;;;;;;;;;;;5049905;28;19927;-61
2023/07/02 04:47:19;;;;;;;;;;;;;;;;;;5070561;28;19920;-61
2023/07/02 04:49:45;;;;;;;;;;;;;;;;;;5067133;28;19951;-61
2023/07/02 04:52:11;;;;;;;;;;;;;;;;;;5060009;28;19942;-61
2023/07/02 04:54:37;;;;;;;;;;;;;;;;;;5071230;28;19927;-61
2023/07/02 04:57:03;;;;;;;;;;;;;;;;;;5053056;28;20289;-61
2023/07/02 04:59:29;;;;;;;;;;;;;;;;;;5070874;28;19924;-61
2023/07/02 05:01:55;;;;;;;;;;;;;;;;;;5071158;28;20326;-61
2023/07/02 05:04:21;;;;;;;;;;;;;;;;;;5071121;28;19946;-61
2023/07/02 05:06:47;;;;;;;;;;;;;;;;;;5059287;28;19921;-61
2023/07/02 05:09:13;;;;;;;;;;;;;;;;;;5032999;28;19971;-61
2023/07/02 05:11:38;;;;;;;;;;;;;;;;;;5041561;28;19928;-61
2023/07/02 05:14:04;;;;;;;;;;;;;;;;;;5050414;28;19971;-61
2023/07/02 05:16:30;;;;;;;;;;;;;;;;;;5073022;28;20316;-61
2023/07/02 05:18:56;;;;;;;;;;;;;;;;;;5054871;28;19921;-60
2023/07/02 05:21:22;;;;;;;;;;;;;;;;;;5037875;28;20361;-61
2023/07/02 05:23:48;;;;;;;;;;;;;;;;;;5072153;28;19930;-61
2023/07/02 05:26:14;;;;;;;;;;;;;;;;;;5052146;28;19920;-60
2023/07/02 05:28:40;;;;;;;;;;;;;;;;;;5069908;28;19947;-61
2023/07/02 05:31:06;;;;;;;;;;;;;;;;;;5048605;28;19975;-61
2023/07/02 05:33:33;;;;;;;;;;;;;;;;;;5049621;28;19924;-61
2023/07/02 05:35:59;;;;;;;;;;;;;;;;;;5072825;28;19924;-61
2023/07/02 05:38:24;;;;;;;;;;;;;;;;;;5073016;28;19926;-61
2023/07/02 05:40:50;;;;;;;;;;;;;;;;;;5064118;28;19920;-61
2023/07/02 05:43:16;;;;;;;;;;;;;;;;;;5053298;28;20274;-61
2023/07/02 05:45:42;;;;;;;;;;;;;;;;;;5069166;28;19929;-61
2023/07/02 05:48:08;;;;;;;;;;;;;;;;;;5067207;28;19920;-61
2023/07/02 05:50:34;;;;;;;;;;;;;;;;;;5073406;28;19967;-61
2023/07/02 05:53:00;;;;;;;;;;;;;;;;;;5064595;28;19927;-61
2023/07/02 05:55:26;;;;;;;;;;;;;;;;;;5055062;28;20362;-61
2023/07/02 05:57:52;;;;;;;;;;;;;;;;;;5072875;28;19928;-61
2023/07/02 06:00:17;;;;;;;;;;;;;;;;;;5070972;28;19924;-61
2023/07/02 06:02:43;;;;;;;;;;;;;;;;;;5046195;28;19951;-61
2023/07/02 06:05:09;;;;;;;;;;;;;;;;;;5073601;28;19933;-61
2023/07/02 06:07:35;;;;;;;;;;;;;;;;;;5072321;28;19924;-61
2023/07/02 06:10:01;;;;;;;;;;;;;;;;;;5073485;28;19924;-61
2023/07/02 06:12:27;;;;;;;;;;;;;;;;;;5071251;28;19920;-61
2023/07/02 06:14:53;;;;;;;;;;;;;;;;;;5073861;28;19931;-61
2023/07/02 06:17:20;;;;;;;;;;;;;;;;;;5054820;28;20338;-61
2023/07/02 06:19:46;;;;;;;;;;;;;;;;;;5071309;28;19927;-61
2023/07/02 06:22:12;;;;;;;;;;;;;;;;;;5054798;28;19985;-61
2023/07/02 06:24:38;;;;;;;;;;;;;;;;;;5055224;28;19928;-61
2023/07/02 06:27:04;;;;;;;;;;;;;;;;;;5055179;28;20390;-61
2023/07/02 06:29:30;;;;;;;;;;;;;;;;;;5055262;28;19932;-61
2023/07/02 06:31:56;;;;;;;;;;;;;;;;;;5073088;28;19921;-61
2023/07/02 06:34:22;;;;;;;;;;;;;;;;;;5072965;28;20011;-61
2023/07/02 06:36:47;;;;;;;;;;;;;;;;;;5063855;28;19926;-61
2023/07/02 06:39:13;;;;;;;;;;;;;;;;;;5071475;28;19924;-61
2023/07/02 06:41:39;;;;;;;;;;;;;;;;;;5066162;28;19931;-64
2023/07/02 06:44:06;;;;;;;;;;;;;;;;;;5044293;28;19921;-61
2023/07/02 06:46:32;;;;;;;;;;;;;;;;;;5065709;28;19939;-62
2023/07/02 06:48:58;;;;;;;;;;;;;;;;;;5073014;28;20330;-62
2023/07/02 06:51:26;;;;;;;;;;;;;;;;;;5067648;28;19921;-61
2023/07/02 06:53:51;;;;;;;;;;;;;;;;;;5070772;28;19924;-61
2023/07/02 06:56:17;;;;;;;;;;;;;;;;;;5072483;28;19982;-61
2023/07/02 06:58:43;;;;;;;;;;;;;;;;;;5065645;28;19925;-61
2023/07/02 07:01:09;;;;;;;;;;;;;;;;;;5067512;28;19951;-61
2023/07/02 07:03:35;;;;;;;;;;;;;;;;;;5044285;28;20035;-61
2023/07/02 07:06:01;;;;;;;;;;;;;;;;;;5058428;28;19924;-61
2023/07/02 07:08:27;;;;;;;;;;;;;;;;;;5049331;28;19975;-61
2023/07/02 07:10:53;;;;;;;;;;;;;;;;;;5070678;28;19928;-61
2023/07/02 07:13:19;;;;;;;;;;;;;;;;;;5071685;28;19927;-61
2023/07/02 07:15:44;;;;;;;;;;;;;;;;;;5067387;28;20290;-61
2023/07/02 07:18:10;;;;;;;;;;;;;;;;;;5071117;28;19959;-61
2023/07/02 07:20:36;;;;;;;;;;;;;;;;;;5064252;28;19924;-61
2023/07/02 07:23:02;;;;;;;;;;;;;;;;;;5066562;28;19935;-61
2023/07/02 07:25:28;;;;;;;;;;;;;;;;;;5047329;28;19921;-61
2023/07/02 07:27:54;;;;;;;;;;;;;;;;;;5052761;28;19963;-62
2023/07/02 07:30:23;;;;;;;;;;;;;;;;;;5068192;28;19994;-61
2023/07/02 07:32:48;;;;;;;;;;;;;;;;;;5070022;28;20292;-61
2023/07/02 07:35:14;;;;;;;;;;;;;;;;;;5062064;28;19921;-61
2023/07/02 07:37:40;;;;;;;;;;;;;;;;;;5066922;28;19920;-61
2023/07/02 07:40:06;;;;;;;;;;;;;;;;;;5059310;28;20297;-62
2023/07/02 07:42:32;;;;;;;;;;;;;;;;;;5064152;28;19932;-61
2023/07/02 07:44:58;;;;;;;;;;;;;;;;;;5051461;28;20281;-61
2023/07/02 07:47:24;;;;;;;;;;;;;;;;;;5044959;28;19920;-61
2023/07/02 07:49:50;;;;;;;;;;;;;;;;;;5067098;28;20007;-61
2023/07/02 07:52:16;;;;;;;;;;;;;;;;;;5047893;28;19925;-62
2023/07/02 07:54:42;;;;;;;;;;;;;;;;;;5068492;28;20289;-62
2023/07/02 07:57:08;;;;;;;;;;;;;;;;;;5071290;28;19955;-61
2023/07/02 07:59:34;;;;;;;;;;;;;;;;;;5068425;28;20642;-61
2023/07/02 08:01:59;;;;;;;;;;;;;;;;;;5068660;28;20015;-61
2023/07/02 08:04:25;;;;;;;;;;;;;;;;;;5069592;28;19927;-61
2023/07/02 08:06:51;;;;;;;;;;;;;;;;;;5030414;28;19927;-62
2023/07/02 08:09:17;;;;;;;;;;;;;;;;;;5070186;28;20347;-61
2023/07/02 08:11:43;;;;;;;;;;;;;;;;;;5068712;28;19931;-61
2023/07/02 08:14:09;;;;;;;;;;;;;;;;;;5067706;28;19935;-61
2023/07/02 08:16:35;;;;;;;;;;;;;;;;;;5050820;28;20374;-61
2023/07/02 08:19:01;;;;;;;;;;;;;;;;;;5066906;28;19927;-61
2023/07/02 08:21:27;;;;;;;;;;;;;;;;;;5069660;28;20266;-61
2023/07/02 08:23:53;;;;;;;;;;;;;;;;;;5068991;28;20026;-61
2023/07/02 08:26:19;;;;;;;;;;;;;;;;;;5070615;28;19920;-61
2023/07/02 08:28:45;;;;;;;;;;;;;;;;;;5069713;28;19928;-61
2023/07/02 08:31:10;;;;;;;;;;;;;;;;;;5049008;28;19924;-61
2023/07/02 08:33:36;;;;;;;;;;;;;;;;;;5067382;28;19927;-61
2023/07/02 08:36:02;;;;;;;;;;;;;;;;;;5050820;28;20569;-61
2023/07/02 08:38:28;;;;;;;;;;;;;;;;;;5068416;28;19982;-61
2023/07/02 08:40:54;;;;;;;;;;;;;;;;;;5050283;28;19977;-61
2023/07/02 08:43:20;;;;;;;;;;;;;;;;;;5066136;28;19956;-61
2023/07/02 08:45:46;;;;;;;;;;;;;;;;;;5047487;28;20000;-61
2023/07/02 08:48:12;;;;;;;;;;;;;;;;;;5050943;28;19984;-61
2023/07/02 08:50:38;;;;;;;;;;;;;;;;;;5073822;28;19929;-61
2023/07/02 08:53:03;;;;;;;;;;;;;;;;;;5070283;28;19920;-63
2023/07/02 08:55:29;;;;;;;;;;;;;;;;;;5049087;28;19927;-61
2023/07/02 08:57:57;;;;;;;;;;;;;;;;;;5053046;28;19920;-61
2023/07/02 09:00:23;;;;;;;;;;;;;;;;;;5069445;28;20058;-61
2023/07/02 09:02:49;;;;;;;;;;;;;;;;;;5071019;28;20040;-61
2023/07/02 09:05:15;;;;;;;;;;;;;;;;;;5068062;28;19924;-61
2023/07/02 09:07:41;;;;;;;;;;;;;;;;;;5071770;28;20011;-61
2023/07/02 09:10:06;;;;;;;;;;;;;;;;;;5070761;28;21677;-61
2023/07/02 09:12:34;;;;;;;;;;;;;;;;;;5063852;28;19924;-61
2023/07/02 09:15:00;;;;;;;;;;;;;;;;;;5071881;28;19920;-61
2023/07/02 09:17:26;;;;;;;;;;;;;;;;;;5070454;28;19932;-61
2023/07/02 09:19:52;;;;;;;;;;;;;;;;;;5068221;28;20366;-60
2023/07/02 09:22:17;;;;;;;;;;;;;;;;;;5069039;28;19935;-61
2023/07/02 09:24:43;;;;;;;;;;;;;;;;;;5051718;28;20566;-60
2023/07/02 09:27:09;;;;;;;;;;;;;;;;;;5054430;28;19921;-61
2023/07/02 09:29:35;;;;;;;;;;;;;;;;;;5050591;28;19964;-61
2023/07/02 09:32:02;;;;;;;;;;;;;;;;;;5069888;28;19921;-61
2023/07/02 09:34:28;;;;;;;;;;;;;;;;;;5070184;28;20031;-61
2023/07/02 09:36:54;;;;;;;;;;;;;;;;;;5072126;28;19924;-61
2023/07/02 09:39:22;;;;;;;;;;;;;;;;;;5065797;28;19948;-61
2023/07/02 09:41:48;;;;;;;;;;;;;;;;;;5072357;28;19920;-61
2023/07/02 09:44:13;;;;;;;;;;;;;;;;;;5070622;28;19920;-61
2023/07/02 09:46:39;;;;;;;;;;;;;;;;;;5036345;28;19928;-61
2023/07/02 09:49:05;;;;;;;;;;;;;;;;;;5072450;28;20647;-61
2023/07/02 09:51:31;;;;;;;;;;;;;;;;;;5053485;28;19920;-61
2023/07/02 09:53:58;;;;;;;;;;;;;;;;;;5073244;28;19967;-61
2023/07/02 09:56:24;;;;;;;;;;;;;;;;;;5049926;28;19925;-61
2023/07/02 09:58:50;;;;;;;;;;;;;;;;;;5049272;28;20485;-61
2023/07/02 10:01:16;;;;;;;;;;;;;;;;;;5030803;28;19928;-61
2023/07/02 10:03:41;;;;;;;;;;;;;;;;;;5048199;28;19924;-60
2023/07/02 10:06:07;;;;;;;;;;;;;;;;;;5048618;28;19932;-61
2023/07/02 10:08:33;;;;;;;;;;;;;;;;;;5068121;28;20319;-61
2023/07/02 10:10:59;;;;;;;;;;;;;;;;;;5047172;28;19928;-61
2023/07/02 10:13:25;;;;;;;;;;;;;;;;;;5067950;28;19927;-61
2023/07/02 10:15:51;;;;;;;;;;;;;;;;;;5046850;28;19971;-61
2023/07/02 10:18:17;;;;;;;;;;;;;;;;;;5049230;28;20008;-64
2023/07/02 10:20:43;;;;;;;;;;;;;;;;;;5066775;28;19928;-65
2023/07/02 10:23:09;;;;;;;;;;;;;;;;;;5064981;28;19925;-65
2023/07/02 10:25:36;;;;;;;;;;;;;;;;;;5034494;28;19947;-65
2023/07/02 10:28:02;;;;;;;;;;;;;;;;;;5067458;28;20331;-65
2023/07/02 10:30:28;;;;;;;;;;;;;;;;;;5057120;28;20006;-65
2023/07/02 10:32:54;;;;;;;;;;;;;;;;;;5066232;28;20489;-65
2023/07/02 10:35:20;;;;;;;;;;;;;;;;;;5066581;28;19920;-65
2023/07/02 10:37:46;;;;;;;;;;;;;;;;;;5053236;23;20055;-67
2023/07/02 10:40:12;;;;;;;;;;;;;;;;;;5044966;28;19936;-67
2023/07/02 10:42:38;;;;;;;;;;;;;;;;;;5048850;28;19928;-67
2023/07/02 10:45:04;;;;;;;;;;;;;;;;;;5045921;28;19932;-66
2023/07/02 10:47:30;;;;;;;;;;;;;;;;;;5047509;28;20042;-67
2023/07/02 10:49:55;;;;;;;;;;;;;;;;;;5042639;28;19924;-67
2023/07/02 10:52:21;;;;;;;;;;;;;;;;;;5047004;28;20031;-67
2023/07/02 10:54:47;;;;;;;;;;;;;;;;;;5050178;28;19925;-67
2023/07/02 10:57:13;;;;;;;;;;;;;;;;;;5041056;28;19978;-67
2023/07/02 10:59:39;;;;;;;;;;;;;;;;;;5040570;28;19955;-66
2023/07/02 11:02:06;;;;;;;;;;;;;;;;;;5049526;28;19924;-67
2023/07/02 11:04:32;;;;;;;;;;;;;;;;;;5042363;28;19933;-67
2023/07/02 11:06:58;;;;;;;;;;;;;;;;;;5041189;28;19932;-67
2023/07/02 11:09:26;;;;;;;;;;;;;;;;;;5043958;28;20326;-67
2023/07/02 11:11:52;;;;;;;;;;;;;;;;;;5042461;28;20027;-67
2023/07/02 11:14:18;;;;;;;;;;;;;;;;;;5041901;28;19925;-67
2023/07/02 11:16:44;;;;;;;;;;;;;;;;;;5045993;28;20274;-66
2023/07/02 11:19:10;;;;;;;;;;;;;;;;;;5038854;28;20061;-67
2023/07/02 11:21:36;;;;;;;;;;;;;;;;;;5044538;28;19921;-67
2023/07/02 11:24:02;;;;;;;;;;;;;;;;;;5042775;28;19931;-67
2023/07/02 11:26:29;;;;;;;;;;;;;;;;;;5047384;28;19971;-68
2023/07/02 11:28:55;;;;;;;;;;;;;;;;;;5037286;28;19921;-67
2023/07/02 11:31:21;;;;;;;;;;;;;;;;;;5045267;28;20366;-67
2023/07/02 11:33:48;;;;;;;;;;;;;;;;;;5047968;28;20393;-61
2023/07/02 11:36:14;;;;;;;;;;;;;;;;;;5041597;28;20373;-60
2023/07/02 11:38:40;;;;;;;;;;;;;;;;;;5043352;28;19974;-62
2023/07/02 11:41:06;;;;;;;;;;;;;;;;;;5041137;28;19971;-61
2023/07/02 11:43:32;;;;;;;;;;;;;;;;;;5046795;28;19928;-61
2023/07/02 11:45:57;;;;;;;;;;;;;;;;;;5043231;28;19968;-61
2023/07/02 11:48:23;;;;;;;;;;;;;;;;;;5044306;28;19928;-62
2023/07/02 11:50:49;;;;;;;;;;;;;;;;;;5045770;28;19928;-62
2023/07/02 11:53:15;;;;;;;;;;;;;;;;;;5046063;28;19928;-61
2023/07/02 11:55:41;;;;;;;;;;;;;;;;;;5047624;28;19927;-61
2023/07/02 11:58:07;;;;;;;;;;;;;;;;;;5051698;28;19932;-61
2023/07/02 12:00:33;;;;;;;;;;;;;;;;;;5051449;28;19924;-61
2023/07/02 12:02:59;;;;;;;;;;;;;;;;;;5049765;28;19929;-61
2023/07/02 12:05:25;;;;;;;;;;;;;;;;;;5050902;28;19928;-61
2023/07/02 12:07:51;;;;;;;;;;;;;;;;;;5051099;28;19924;-61
2023/07/02 12:10:17;;;;;;;;;;;;;;;;;;5039544;28;20289;-62
2023/07/02 12:12:43;;;;;;;;;;;;;;;;;;5051185;28;19924;-61
2023/07/02 12:15:09;;;;;;;;;;;;;;;;;;5049916;28;19974;-61
2023/07/02 12:17:35;;;;;;;;;;;;;;;;;;5050928;28;19931;-61
2023/07/02 12:20:01;;;;;;;;;;;;;;;;;;5048084;28;19929;-61
2023/07/02 12:22:27;;;;;;;;;;;;;;;;;;5053179;28;20556;-61
2023/07/02 12:24:57;;;;;;;;;;;;;;;;;;5055307;28;19928;-62
2023/07/02 12:27:25;;;;;;;;;;;;;;;;;;5041525;28;19924;-61
2023/07/02 12:29:51;;;;;;;;;;;;;;;;;;5046580;28;20032;-61
2023/07/02 12:32:17;;;;;;;;;;;;;;;;;;5053777;28;20548;-61
2023/07/02 12:34:42;;;;;;;;;;;;;;;;;;5052318;28;19931;-61
2023/07/02 12:37:08;;;;;;;;;;;;;;;;;;5046578;28;19925;-62
2023/07/02 12:39:34;;;;;;;;;;;;;;;;;;5036707;28;19971;-61
2023/07/02 12:42:00;;;;;;;;;;;;;;;;;;5054544;28;19921;-62
2023/07/02 12:44:26;;;;;;;;;;;;;;;;;;5053052;28;19986;-61
2023/07/02 12:46:52;;;;;;;;;;;;;;;;;;5054122;28;19921;-62
2023/07/02 12:49:18;;;;;;;;;;;;;;;;;;5054641;28;19921;-62
2023/07/02 12:51:44;;;;;;;;;;;;;;;;;;5052532;28;19932;-62
2023/07/02 12:54:09;;;;;;;;;;;;;;;;;;5051116;28;20373;-62
2023/07/02 12:56:35;;;;;;;;;;;;;;;;;;5046383;28;20039;-61
2023/07/02 12:59:01;;;;;;;;;;;;;;;;;;5051560;28;20790;-61
2023/07/02 13:01:27;;;;;;;;;;;;;;;;;;5052336;28;20352;-61
2023/07/02 13:03:53;;;;;;;;;;;;;;;;;;5050997;28;20020;-61
2023/07/02 13:06:19;;;;;;;;;;;;;;;;;;5053360;28;19966;-61
2023/07/02 13:08:45;;;;;;;;;;;;;;;;;;5053083;28;20003;-61
2023/07/02 13:11:11;;;;;;;;;;;;;;;;;;5052192;28;20288;-61
2023/07/02 13:13:37;;;;;;;;;;;;;;;;;;5054698;28;19924;-61
2023/07/02 13:16:03;;;;;;;;;;;;;;;;;;5054124;28;19931;-61
2023/07/02 13:18:29;;;;;;;;;;;;;;;;;;5051397;28;19921;-61
2023/07/02 13:20:54;;;;;;;;;;;;;;;;;;5049467;28;19921;-61
2023/07/02 13:23:20;;;;;;;;;;;;;;;;;;5048052;28;19951;-61
2023/07/02 13:25:46;;;;;;;;;;;;;;;;;;5051520;28;19970;-61
2023/07/02 13:28:12;;;;;;;;;;;;;;;;;;5052214;28;20007;-61
2023/07/02 13:30:38;;;;;;;;;;;;;;;;;;5050792;28;20366;-61
2023/07/02 13:33:04;;;;;;;;;;;;;;;;;;5052946;28;19935;-61
2023/07/02 13:35:31;;;;;;;;;;;;;;;;;;5052532;28;20398;-61
2023/07/02 13:37:59;;;;;;;;;;;;;;;;;;5053036;28;20285;-62
2023/07/02 13:40:25;;;;;;;;;;;;;;;;;;5053579;28;19970;-61
2023/07/02 13:42:51;;;;;;;;;;;;;;;;;;5040847;28;20258;-61
2023/07/02 13:45:17;;;;;;;;;;;;;;;;;;5047106;28;19921;-61
2023/07/02 13:47:43;;;;;;;;;;;;;;;;;;5044027;28;19932;-61
2023/07/02 13:50:08;;;;;;;;;;;;;;;;;;5049276;28;20378;-61
2023/07/02 13:52:34;;;;;;;;;;;;;;;;;;5050729;28;19932;-61
2023/07/02 13:55:00;;;;;;;;;;;;;;;;;;5051181;28;19963;-61
2023/07/02 13:57:26;;;;;;;;;;;;;;;;;;5052312;28;19927;-61
2023/07/02 13:59:52;;;;;;;;;;;;;;;;;;5051108;28;20255;-61
2023/07/02 14:02:19;;;;;;;;;;;;;;;;;;5049920;28;20290;-61
2023/07/02 14:04:45;;;;;;;;;;;;;;;;;;5050563;28;19929;-61
2023/07/02 14:07:11;;;;;;;;;;;;;;;;;;5051407;28;19935;-61
2023/07/02 14:09:37;;;;;;;;;;;;;;;;;;5050688;28;19925;-62
2023/07/02 14:12:03;;;;;;;;;;;;;;;;;;5051553;28;19956;-61
2023/07/02 14:14:28;;;;;;;;;;;;;;;;;;5050495;28;19921;-61
2023/07/02 14:16:54;;;;;;;;;;;;;;;;;;5050665;28;19975;-61
2023/07/02 14:19:20;;;;;;;;;;;;;;;;;;5050212;28;20278;-61
2023/07/02 14:21:46;;;;;;;;;;;;;;;;;;5052364;28;19936;-61
2023/07/02 14:24:12;;;;;;;;;;;;;;;;;;5050911;28;20509;-63
2023/07/02 14:26:38;;;;;;;;;;;;;;;;;;5042681;28;19925;-61
2023/07/02 14:29:04;;;;;;;;;;;;;;;;;;5034272;28;19940;-61
2023/07/02 14:31:30;;;;;;;;;;;;;;;;;;5051650;28;19999;-61
2023/07/02 14:33:56;;;;;;;;;;;;;;;;;;5052927;28;19921;-61
2023/07/02 14:36:21;;;;;;;;;;;;;;;;;;5052336;28;19936;-61
2023/07/02 14:38:47;;;;;;;;;;;;;;;;;;5052419;28;19932;-61
2023/07/02 14:41:13;;;;;;;;;;;;;;;;;;5030195;28;19956;-61
2023/07/02 14:43:39;;;;;;;;;;;;;;;;;;5046709;28;20312;-61
2023/07/02 14:46:05;;;;;;;;;;;;;;;;;;5050183;28;19921;-61
2023/07/02 14:48:31;;;;;;;;;;;;;;;;;;5035013;28;19932;-61
2023/07/02 14:50:57;;;;;;;;;;;;;;;;;;5043685;28;20007;-65
2023/07/02 14:53:23;;;;;;;;;;;;;;;;;;5049156;28;19920;-65
2023/07/02 14:55:49;;;;;;;;;;;;;;;;;;5050128;28;19920;-65
2023/07/02 14:58:14;;;;;;;;;;;;;;;;;;5045919;28;19925;-65
2023/07/02 15:00:40;;;;;;;;;;;;;;;;;;5039043;28;19936;-65
2023/07/02 15:03:06;;;;;;;;;;;;;;;;;;5048362;28;20361;-65
2023/07/02 15:05:32;;;;;;;;;;;;;;;;;;5058215;28;19971;-65
2023/07/02 15:07:58;;;;;;;;;;;;;;;;;;5052270;28;19987;-65
2023/07/02 15:10:24;;;;;;;;;;;;;;;;;;5051810;28;19921;-65
2023/07/02 15:12:50;;;;;;;;;;;;;;;;;;5051845;28;20374;-65
2023/07/02 15:15:16;;;;;;;;;;;;;;;;;;5052062;28;20024;-65
2023/07/02 15:17:42;;;;;;;;;;;;;;;;;;5051451;28;20035;-65
2023/07/02 15:20:08;;;;;;;;;;;;;;;;;;5047869;28;20521;-65
2023/07/02 15:22:34;;;;;;;;;;;;;;;;;;5049870;28;20003;-65
2023/07/02 15:25:00;;;;;;;;;;;;;;;;;;5040553;28;19927;-66
2023/07/02 15:27:26;;;;;;;;;;;;;;;;;;5036963;28;19995;-61
2023/07/02 15:29:51;;;;;;;;;;;;;;;;;;5046938;28;19925;-61
2023/07/02 15:32:17;;;;;;;;;;;;;;;;;;5041712;28;19921;-61
2023/07/02 15:34:43;;;;;;;;;;;;;;;;;;5050285;28;19970;-62
2023/07/02 15:37:09;;;;;;;;;;;;;;;;;;5049743;28;19983;-61
2023/07/02 15:39:35;;;;;;;;;;;;;;;;;;5047307;28;20305;-61
2023/07/02 15:42:01;;;;;;;;;;;;;;;;;;5050291;28;19920;-61
2023/07/02 15:44:27;;;;;;;;;;;;;;;;;;5051538;28;20354;-61
2023/07/02 15:46:53;;;;;;;;;;;;;;;;;;5047355;28;19931;-61
2023/07/02 15:49:19;;;;;;;;;;;;;;;;;;5050341;28;19921;-61
2023/07/02 15:51:46;;;;;;;;;;;;;;;;;;5049200;28;19955;-61
2023/07/02 15:54:12;;;;;;;;;;;;;;;;;;5028905;28;19921;-61
2023/07/02 15:56:38;;;;;;;;;;;;;;;;;;5048242;28;20344;-61
2023/07/02 15:59:06;;;;;;;;;;;;;;;;;;5050322;28;19936;-61
2023/07/02 16:01:34;;;;;;;;;;;;;;;;;;5045027;28;19921;-61
2023/07/02 16:04:00;;;;;;;;;;;;;;;;;;5033745;28;19974;-61
2023/07/02 16:06:32;;;;;;;;;;;;;;;;;;5049098;28;20290;-61
2023/07/02 16:08:58;;;;;;;;;;;;;;;;;;5049487;28;20526;-61
2023/07/02 16:11:26;;;;;;;;;;;;;;;;;;5044310;28;19924;-61
2023/07/02 16:13:52;;;;;;;;;;;;;;;;;;5048113;28;19921;-61
2023/07/02 16:16:17;;;;;;;;;;;;;;;;;;5047297;28;19946;-61
2023/07/02 16:18:43;;;;;;;;;;;;;;;;;;5061181;28;19925;-61
2023/07/02 16:21:09;;;;;;;;;;;;;;;;;;5045148;28;20351;-61
2023/07/02 16:23:35;;;;;;;;;;;;;;;;;;5049270;28;19924;-61
2023/07/02 16:26:01;;;;;;;;;;;;;;;;;;5050060;28;20262;-62
2023/07/02 16:28:27;;;;;;;;;;;;;;;;;;5047962;28;19920;-61
2023/07/02 16:30:53;;;;;;;;;;;;;;;;;;5048436;28;20329;-61
2023/07/02 16:33:19;;;;;;;;;;;;;;;;;;5049689;28;19928;-61
2023/07/02 16:35:45;;;;;;;;;;;;;;;;;;5045384;28;19936;-61